Terminal Aerodrome Forecast
Issued by NWS

Home | Current Version | Previous Version | Text Only | Print | Product List | Glossary Off
Versions: 1 2 3 4 5 6 7 8 9 10 11 12 13 14 15 16 17 18 19 20 21 22 23 24 25 26

000
FTUS43 KGRB 192340
TAFCWA
TAF
KCWA 192340Z 2000/2024 13008KT P6SM SCT150
     FM201100 14008KT 3SM BR BKN012
      TEMPO 2011/2014 -SHRA
     FM201400 17010G17KT 5SM BR BKN027
      TEMPO 2018/2022 -SHRA=

USA.gov is the U.S. government's official web portal to all federal, state and local government web resources and services.